Time;durP1;ratioP1;P1;durP2;ratioP2;P2;SDS_P1;SDS_P2;PMS_P1;PMS_P2;Temp;Humidity;BMP_temperature;BMP_pressure;BME280_temperature;BME280_humidity;BME280_pressure;Samples;Min_cycle;Max_cycle;Signal;HPM_P1;HPM_P2
2023/10/31 00:00:12;;;;;;;6.15;2.83;;;;;;;18.22;51.14;98997.13;4962009;28;20124;-85
2023/10/31 00:02:38;;;;;;;6.03;2.72;;;;;;;18.24;51.32;99005.72;4976824;28;20066;-87
2023/10/31 00:05:03;;;;;;;11.05;3.53;;;;;;;18.23;51.30;99002.25;4977608;28;20047;-86
2023/10/31 00:07:30;;;;;;;4.60;3.03;;;;;;;18.20;51.12;98999.06;4952624;28;20473;-85
2023/10/31 00:09:56;;;;;;;6.78;3.17;;;;;;;18.15;51.38;98999.53;4966683;28;20494;-86
2023/10/31 00:12:23;;;;;;;6.15;3.22;;;;;;;18.14;51.19;98992.63;4953151;28;20136;-87
2023/10/31 00:14:50;;;;;;;10.18;3.20;;;;;;;18.15;51.33;98996.09;4960516;28;20031;-84
2023/10/31 00:17:17;;;;;;;7.28;3.40;;;;;;;18.12;51.16;98993.75;4951148;28;20106;-86
2023/10/31 00:19:44;;;;;;;5.30;3.10;;;;;;;18.10;51.34;98993.91;4950507;28;20125;-86
2023/10/31 00:22:09;;;;;;;6.82;3.30;;;;;;;18.05;51.24;98985.66;4966749;28;20022;-85
2023/10/31 00:24:35;;;;;;;9.98;3.30;;;;;;;18.00;51.38;98983.50;4967180;28;20034;-84
2023/10/31 00:27:02;;;;;;;9.02;3.53;;;;;;;18.02;51.28;98985.97;4967651;28;20077;-84
2023/10/31 00:29:27;;;;;;;6.53;3.20;;;;;;;17.99;51.27;98986.28;4938500;28;20026;-84
2023/10/31 00:31:53;;;;;;;7.00;3.00;;;;;;;17.98;51.27;98981.97;4965969;28;20026;-86
2023/10/31 00:34:18;;;;;;;6.95;2.70;;;;;;;17.95;51.38;98983.16;4969186;28;20062;-84
2023/10/31 00:36:44;;;;;;;4.90;2.63;;;;;;;17.96;51.23;98974.22;4970697;28;20033;-84
2023/10/31 00:39:10;;;;;;;10.75;3.55;;;;;;;17.95;51.27;98988.44;4966955;28;20108;-86
2023/10/31 00:41:36;;;;;;;7.88;3.10;;;;;;;17.93;51.27;98977.16;4951978;28;20121;-87
2023/10/31 00:44:03;;;;;;;5.40;3.05;;;;;;;17.89;51.27;98981.94;4949639;28;20042;-87
2023/10/31 00:46:29;;;;;;;7.78;3.03;;;;;;;17.86;51.18;98973.50;4951254;28;20026;-85
2023/10/31 00:48:57;;;;;;;6.32;3.22;;;;;;;17.87;51.46;98975.16;4965415;28;20038;-86
2023/10/31 00:51:23;;;;;;;5.75;2.97;;;;;;;17.80;51.34;98969.66;4965188;28;20039;-86
2023/10/31 00:53:51;;;;;;;6.18;3.28;;;;;;;17.79;51.15;98960.09;4948779;28;20105;-87
2023/10/31 00:56:17;;;;;;;7.80;3.53;;;;;;;17.79;51.60;98964.53;4991147;28;20030;-85
2023/10/31 00:58:45;;;;;;;6.97;3.25;;;;;;;17.70;51.04;98951.31;4994260;28;20405;-86
2023/10/31 01:01:12;;;;;;;8.50;3.50;;;;;;;17.72;51.31;98957.25;4976791;28;20117;-87
2023/10/31 01:03:38;;;;;;;6.20;3.00;;;;;;;17.73;51.55;98950.97;4960958;28;20034;-86
2023/10/31 01:06:05;;;;;;;7.13;3.20;;;;;;;17.74;51.26;98959.72;4993834;28;20548;-87
2023/10/31 01:08:31;;;;;;;7.60;3.07;;;;;;;17.67;51.37;98946.34;4976488;28;20033;-86
2023/10/31 01:10:58;;;;;;;7.93;3.55;;;;;;;17.64;51.49;98935.28;4944558;28;20030;-86
2023/10/31 01:13:24;;;;;;;8.02;3.55;;;;;;;17.65;51.37;98936.94;4976787;28;20062;-86
2023/10/31 01:15:50;;;;;;;8.00;4.20;;;;;;;17.68;51.55;98948.00;4976900;28;20034;-86
2023/10/31 01:18:17;;;;;;;12.88;3.50;;;;;;;17.65;51.46;98944.84;4976392;28;20045;-85
2023/10/31 01:20:43;;;;;;;8.23;3.25;;;;;;;17.65;51.65;98945.66;4961124;28;20030;-85
2023/10/31 01:23:08;;;;;;;8.57;3.50;;;;;;;17.61;51.45;98936.41;4943916;28;20402;-84
2023/10/31 01:25:35;;;;;;;7.30;3.38;;;;;;;17.62;51.77;98947.81;4960328;28;20034;-85
2023/10/31 01:28:01;;;;;;;7.30;3.38;;;;;;;17.56;51.51;98943.97;4976184;28;20022;-85
2023/10/31 01:30:28;;;;;;;7.72;3.70;;;;;;;17.57;51.74;98950.06;4960412;28;20072;-84
2023/10/31 01:32:53;;;;;;;15.70;3.92;;;;;;;17.51;51.66;98940.97;4944273;28;20130;-85
2023/10/31 01:35:19;;;;;;;6.47;3.47;;;;;;;17.50;51.56;98948.06;4944326;28;20057;-84
2023/10/31 01:37:44;;;;;;;8.32;3.63;;;;;;;17.45;51.80;98941.59;4960538;28;20041;-84
2023/10/31 01:40:14;;;;;;;9.85;3.72;;;;;;;17.44;51.72;98937.28;4960149;28;20069;-84
2023/10/31 01:42:40;;;;;;;7.55;3.50;;;;;;;17.45;51.88;98947.69;4976053;28;20026;-83
2023/10/31 01:45:06;;;;;;;7.47;3.45;;;;;;;17.39;51.91;98936.94;4959807;28;20069;-84
2023/10/31 01:47:32;;;;;;;8.35;3.72;;;;;;;17.39;51.92;98932.47;4960074;28;20105;-84
2023/10/31 01:49:59;;;;;;;6.00;3.42;;;;;;;17.39;52.15;98935.13;4944144;28;20034;-84
2023/10/31 01:52:24;;;;;;;8.02;3.45;;;;;;;17.31;51.91;98924.53;4960064;28;20029;-84
2023/10/31 01:54:50;;;;;;;8.48;3.38;;;;;;;17.35;51.96;98931.97;4944072;28;20022;-83
2023/10/31 01:57:16;;;;;;;7.47;3.30;;;;;;;17.28;51.96;98922.19;4960641;28;20038;-86
2023/10/31 01:59:42;;;;;;;8.60;3.40;;;;;;;17.27;51.90;98923.19;4944448;28;20030;-86
2023/10/31 02:02:07;;;;;;;7.80;3.80;;;;;;;17.30;52.07;98933.41;4975978;28;20022;-85
2023/10/31 02:04:34;;;;;;;5.75;3.08;;;;;;;17.29;52.21;98935.22;4959749;28;20092;-84
2023/10/31 02:06:59;;;;;;;7.30;3.15;;;;;;;17.27;52.28;98925.84;4959782;28;20030;-85
2023/10/31 02:09:27;;;;;;;6.70;3.28;;;;;;;17.21;52.35;98922.00;4959718;28;20108;-84
2023/10/31 02:11:53;;;;;;;6.00;3.33;;;;;;;17.18;52.16;98917.84;4944669;28;20037;-85
2023/10/31 02:14:19;;;;;;;6.57;3.28;;;;;;;17.24;52.23;98926.16;4975610;28;20035;-85
2023/10/31 02:16:44;;;;;;;7.55;3.10;;;;;;;17.22;52.24;98925.44;4960476;28;20041;-85
2023/10/31 02:19:10;;;;;;;9.43;3.50;;;;;;;17.21;52.42;98926.47;4963623;28;20128;-85
2023/10/31 02:21:39;;;;;;;7.68;3.33;;;;;;;17.15;52.37;98923.44;4947654;28;20042;-84
2023/10/31 02:24:05;;;;;;;8.45;3.28;;;;;;;17.18;52.39;98927.59;4963897;28;20030;-87
2023/10/31 02:26:31;;;;;;;11.65;3.63;;;;;;;17.16;52.48;98924.28;4963512;28;20030;-86
2023/10/31 02:28:57;;;;;;;7.18;3.00;;;;;;;17.15;52.58;98931.34;4963795;28;20125;-86
2023/10/31 02:31:23;;;;;;;8.13;3.25;;;;;;;17.12;52.54;98920.28;4979630;28;20393;-87
2023/10/31 02:33:49;;;;;;;8.13;3.47;;;;;;;17.03;52.73;98918.56;4947691;28;20034;-87
2023/10/31 02:36:14;;;;;;;10.75;3.67;;;;;;;17.05;52.67;98920.09;4979915;28;20030;-85
2023/10/31 02:38:42;;;;;;;7.00;3.67;;;;;;;17.04;52.65;98917.59;4979809;28;20489;-85
2023/10/31 02:41:07;;;;;;;10.02;3.45;;;;;;;17.06;52.63;98915.63;4980332;28;20061;-85
2023/10/31 02:43:33;;;;;;;7.28;3.30;;;;;;;17.05;52.83;98925.34;4980753;28;20493;-85
2023/10/31 02:46:00;;;;;;;9.27;3.75;;;;;;;17.03;52.79;98927.31;4980080;28;20057;-85
2023/10/31 02:48:26;;;;;;;5.70;3.05;;;;;;;16.97;52.90;98912.94;4963939;28;20223;-85
2023/10/31 02:50:52;;;;;;;9.52;3.80;;;;;;;16.96;52.53;98913.09;4963079;28;20036;-85
2023/10/31 02:53:20;;;;;;;8.57;3.20;;;;;;;16.98;52.82;98926.94;4949319;28;20117;-87
2023/10/31 02:55:46;;;;;;;6.70;3.25;;;;;;;16.95;52.89;98925.44;4985321;28;20038;-87
2023/10/31 02:58:12;;;;;;;7.72;3.50;;;;;;;16.95;52.84;98925.44;4964494;28;20097;-87
2023/10/31 03:00:37;;;;;;;8.68;3.80;;;;;;;16.94;52.80;98928.25;4963404;28;20061;-87
2023/10/31 03:03:04;;;;;;;8.32;3.50;;;;;;;16.92;53.03;98927.53;4962982;28;20034;-87
2023/10/31 03:05:30;;;;;;;6.63;3.33;;;;;;;16.86;52.89;98923.72;4979290;28;20034;-86
2023/10/31 03:07:56;;;;;;;5.28;3.33;;;;;;;16.89;53.08;98926.06;4979075;28;20089;-86
2023/10/31 03:10:22;;;;;;;8.77;3.38;;;;;;;16.75;53.00;98908.13;4946976;28;20397;-87
2023/10/31 03:12:48;;;;;;;9.30;3.60;;;;;;;16.77;53.15;98922.78;4960915;28;20040;-86
2023/10/31 03:15:14;;;;;;;9.52;3.65;;;;;;;16.79;53.15;98922.63;4959600;28;20424;-88
2023/10/31 03:17:39;;;;;;;10.57;3.80;;;;;;;16.76;53.17;98920.31;4959521;28;20026;-86
2023/10/31 03:20:08;;;;;;;6.30;3.25;;;;;;;16.67;53.25;98910.66;4943247;28;20035;-86
2023/10/31 03:22:33;;;;;;;8.85;3.50;;;;;;;16.75;53.10;98918.66;4965975;28;20031;-86
2023/10/31 03:24:59;;;;;;;7.05;3.67;;;;;;;16.72;53.27;98922.44;4962507;28;20042;-87
2023/10/31 03:27:25;;;;;;;8.75;3.67;;;;;;;16.72;53.43;98918.97;4994347;28;20018;-88
2023/10/31 03:29:52;;;;;;;8.95;3.55;;;;;;;16.66;53.42;98915.13;4962298;28;20117;-85
2023/10/31 03:32:18;;;;;;;11.30;4.10;;;;;;;16.59;53.58;98898.28;4978793;28;20022;-87
2023/10/31 03:34:44;;;;;;;6.45;2.92;;;;;;;16.66;53.60;98909.03;4962703;28;20041;-87
2023/10/31 03:37:11;;;;;;;7.05;3.30;;;;;;;16.64;53.66;98914.47;4977474;28;20426;-85
2023/10/31 03:39:37;;;;;;;5.75;2.92;;;;;;;16.51;53.77;98893.75;4978146;28;20042;-86
2023/10/31 03:42:05;;;;;;;6.20;3.22;;;;;;;16.62;53.75;98905.88;4961995;28;20408;-88
2023/10/31 03:44:30;;;;;;;6.38;2.97;;;;;;;16.58;53.56;98907.97;4977788;28;20042;-88
2023/10/31 03:46:57;;;;;;;8.02;3.50;;;;;;;16.55;53.78;98897.72;4994495;28;20053;-88
2023/10/31 03:49:22;;;;;;;6.47;3.45;;;;;;;16.53;53.90;98894.44;4978302;28;20030;-88
2023/10/31 03:51:47;;;;;;;7.63;3.40;;;;;;;16.56;53.78;98909.94;4962475;28;20124;-86
2023/10/31 03:54:15;;;;;;;6.05;3.40;;;;;;;16.49;53.82;98889.59;4978079;28;20070;-87
2023/10/31 03:56:42;;;;;;;4.63;2.85;;;;;;;16.52;53.91;98902.47;4977997;28;20061;-87
2023/10/31 03:59:07;;;;;;;7.47;3.60;;;;;;;16.52;53.96;98908.56;4978335;28;20085;-87
2023/10/31 04:01:33;;;;;;;7.03;3.70;;;;;;;16.48;53.85;98896.69;4977321;28;20039;-87
2023/10/31 04:03:59;;;;;;;7.30;3.03;;;;;;;16.50;53.96;98902.63;4977854;28;20481;-88
2023/10/31 04:06:25;;;;;;;6.57;3.30;;;;;;;16.45;54.01;98891.72;4977755;28;20033;-87
2023/10/31 04:08:52;;;;;;;6.88;3.60;;;;;;;16.40;53.99;98886.91;4977564;28;20026;-87
2023/10/31 04:11:19;;;;;;;7.43;3.78;;;;;;;16.42;54.03;98892.03;4977746;28;20065;-87
2023/10/31 04:13:44;;;;;;;7.70;2.88;;;;;;;16.44;54.22;98897.97;4995153;28;20057;-86
2023/10/31 04:16:11;;;;;;;7.35;3.58;;;;;;;16.41;54.22;98899.13;4977611;28;20026;-85
2023/10/31 04:18:37;;;;;;;6.00;3.30;;;;;;;16.40;54.23;98899.25;4977908;28;20397;-85
2023/10/31 04:21:04;;;;;;;10.98;3.47;;;;;;;16.41;54.20;98909.66;4961685;28;20072;-86
2023/10/31 04:23:30;;;;;;;7.47;3.63;;;;;;;16.36;54.25;98893.44;4977971;28;20035;-85
2023/10/31 04:25:56;;;;;;;9.00;3.58;;;;;;;16.38;54.49;98906.47;4977844;28;20096;-85
2023/10/31 04:28:24;;;;;;;6.07;3.28;;;;;;;16.36;54.26;98905.78;4977521;28;20042;-85
2023/10/31 04:30:49;;;;;;;5.10;3.40;;;;;;;16.34;54.42;98908.59;4978381;28;20034;-85
2023/10/31 04:33:16;;;;;;;8.93;3.47;;;;;;;16.34;54.22;98911.22;4962625;28;20038;-86
2023/10/31 04:35:42;;;;;;;8.52;3.42;;;;;;;16.34;54.61;98918.31;4980015;28;20120;-86
2023/10/31 04:38:11;;;;;;;9.30;3.80;;;;;;;16.32;54.57;98907.91;4965346;28;20030;-86
2023/10/31 04:40:37;;;;;;;5.68;3.15;;;;;;;16.36;54.58;98922.41;4978075;28;20038;-80
2023/10/31 04:43:02;;;;;;;8.07;3.78;;;;;;;16.34;54.61;98910.41;4995021;28;20401;-77
2023/10/31 04:45:27;;;;;;;8.52;3.92;;;;;;;16.32;54.76;98918.44;4977333;28;20070;-78
2023/10/31 04:47:53;;;;;;;10.50;3.60;;;;;;;16.37;54.49;98923.28;4960674;28;20034;-76
2023/10/31 04:50:19;;;;;;;8.20;3.53;;;;;;;16.35;54.62;98917.31;4997964;28;20409;-79
2023/10/31 04:52:44;;;;;;;7.55;3.42;;;;;;;16.36;54.55;98925.06;4985403;28;20030;-79
2023/10/31 04:55:10;;;;;;;6.78;3.60;;;;;;;16.34;54.39;98908.59;4995229;28;20391;-82
2023/10/31 04:57:37;;;;;;;8.32;3.50;;;;;;;16.38;54.64;98919.63;4960664;28;20112;-81
2023/10/31 05:00:05;;;;;;;6.60;3.30;;;;;;;16.42;54.11;98915.75;4977312;28;20050;-81
2023/10/31 05:02:31;;;;;;;;;;;;;;;16.50;56.80;98915.00;4961592;28;20455;-75
2023/10/31 05:04:57;;;;;;;9.77;3.65;;;;;;;16.57;55.48;98911.59;4985021;28;20004;-79
2023/10/31 05:07:23;;;;;;;7.85;3.33;;;;;;;16.96;56.51;98923.63;4976885;28;20026;-78
2023/10/31 05:09:49;;;;;;;8.73;3.38;;;;;;;17.21;55.27;98924.63;4975016;28;20030;-76
2023/10/31 05:12:14;;;;;;;7.80;3.40;;;;;;;17.43;53.69;98922.47;4961747;28;20042;-82
2023/10/31 05:14:40;;;;;;;7.55;3.90;;;;;;;17.65;52.59;98927.19;4955346;28;20026;-79
2023/10/31 05:17:05;;;;;;;10.40;4.72;;;;;;;17.87;51.58;98917.88;4979463;28;20469;-79
2023/10/31 05:19:31;;;;;;;8.63;5.35;;;;;;;18.08;50.40;98922.75;4972521;28;20022;-79
2023/10/31 05:21:56;;;;;;;11.75;6.85;;;;;;;18.27;49.66;98929.56;4975170;28;20073;-82
2023/10/31 05:24:22;;;;;;;13.38;9.10;;;;;;;18.50;48.88;98928.97;4959878;28;20065;-77
2023/10/31 05:26:47;;;;;;;19.85;12.02;;;;;;;18.78;48.18;98926.81;4993270;28;20038;-77
2023/10/31 05:29:13;;;;;;;24.92;16.73;;;;;;;19.00;47.73;98929.84;4975442;28;20097;-78
2023/10/31 05:31:38;;;;;;;23.10;14.35;;;;;;;19.25;47.00;98927.97;4976257;28;20070;-77
2023/10/31 05:34:04;;;;;;;26.40;5.93;;;;;;;19.62;53.03;98929.19;4976242;28;20049;-82
2023/10/31 05:36:29;;;;;;;19.92;10.27;;;;;;;20.01;47.21;98936.38;4948398;28;20140;-77
2023/10/31 05:38:55;;;;;;;16.10;10.13;;;;;;;20.22;46.45;98930.44;4960333;28;20035;-76
2023/10/31 05:41:20;;;;;;;17.92;9.68;;;;;;;20.49;45.87;98928.31;4940818;28;20038;-76
2023/10/31 05:43:46;;;;;;;13.98;8.98;;;;;;;20.85;44.96;98924.28;4956381;28;20039;-75
2023/10/31 05:46:13;;;;;;;12.02;6.43;;;;;;;21.31;44.37;98921.50;4955868;28;20043;-75
2023/10/31 05:48:39;;;;;;;15.20;5.00;;;;;;;21.79;46.80;98922.00;4957283;28;20082;-79
2023/10/31 05:51:12;;;;;;;9.00;4.65;;;;;;;22.58;45.92;98917.75;4967758;28;20030;-77
2023/10/31 05:53:38;;;;;;;13.70;4.88;;;;;;;23.29;44.22;98912.44;4959455;28;20038;-79
2023/10/31 05:56:04;;;;;;;9.85;4.68;;;;;;;24.01;42.47;98925.53;4959504;28;20030;-78
2023/10/31 05:58:30;;;;;;;8.77;3.97;;;;;;;24.63;41.05;98920.97;4975521;28;20018;-79
2023/10/31 06:00:56;;;;;;;11.65;4.30;;;;;;;25.23;39.14;98920.16;4983573;28;20097;-81
2023/10/31 06:03:21;;;;;;;10.55;3.85;;;;;;;25.78;37.95;98922.53;4941728;28;20402;-84
2023/10/31 06:05:47;;;;;;;10.10;3.70;;;;;;;26.29;36.79;98918.19;4956701;28;20035;-79
2023/10/31 06:08:12;;;;;;;13.75;3.95;;;;;;;26.86;35.79;98924.41;4942075;28;20406;-86
2023/10/31 06:10:37;;;;;;;23.83;3.70;;;;;;;27.31;34.88;98917.25;4958678;28;20046;-80
2023/10/31 06:13:03;;;;;;;31.92;4.40;;;;;;;27.92;33.49;98926.25;4956359;28;20043;-81
2023/10/31 06:15:28;;;;;;;16.10;3.88;;;;;;;28.50;32.34;98925.69;4974254;28;20457;-80
2023/10/31 06:17:54;;;;;;;15.05;3.22;;;;;;;29.20;30.91;98915.31;4975684;28;20082;-80
2023/10/31 06:20:19;;;;;;;20.00;3.63;;;;;;;29.95;29.75;98917.22;4993150;28;20034;-80
2023/10/31 06:22:45;;;;;;;11.40;3.58;;;;;;;30.94;28.17;98917.06;4960479;28;20062;-79
2023/10/31 06:25:10;;;;;;;12.18;3.63;;;;;;;31.99;26.80;98917.16;4959991;28;20410;-81
2023/10/31 06:27:36;;;;;;;11.18;3.33;;;;;;;32.86;25.08;98913.66;4993315;28;20120;-80
2023/10/31 06:30:02;;;;;;;13.15;3.35;;;;;;;33.58;23.97;98920.34;4960685;28;20034;-79
2023/10/31 06:32:28;;;;;;;9.05;3.35;;;;;;;34.18;23.32;98923.53;4993076;28;20029;-79
2023/10/31 06:34:53;;;;;;;9.02;3.20;;;;;;;34.68;22.89;98923.06;4992639;28;20039;-79
2023/10/31 06:37:19;;;;;;;13.32;3.65;;;;;;;35.12;22.32;98919.81;4959752;28;20037;-80
2023/10/31 06:39:44;;;;;;;12.68;3.42;;;;;;;35.67;21.51;98904.44;4959642;28;20038;-79
2023/10/31 06:42:09;;;;;;;14.20;3.25;;;;;;;36.27;20.92;98903.63;4975623;28;20183;-79
2023/10/31 06:44:35;;;;;;;10.82;3.13;;;;;;;37.02;20.06;98901.66;4958815;28;20054;-78
2023/10/31 06:47:00;;;;;;;9.27;2.90;;;;;;;37.88;19.25;98901.78;4980109;28;20509;-78
2023/10/31 06:49:26;;;;;;;8.02;3.00;;;;;;;38.57;18.39;98901.28;4973323;28;20039;-80
2023/10/31 06:51:51;;;;;;;9.45;2.60;;;;;;;39.25;17.58;98901.75;4956473;28;20058;-79
2023/10/31 06:54:17;;;;;;;7.38;2.80;;;;;;;39.77;16.95;98904.28;4955521;28;20050;-79
2023/10/31 06:56:42;;;;;;;9.50;3.00;;;;;;;40.26;16.65;98891.69;4940617;28;20460;-79
2023/10/31 06:59:08;;;;;;;7.57;2.88;;;;;;;40.68;16.36;98892.31;4940676;28;20031;-80
2023/10/31 07:01:34;;;;;;;8.27;2.70;;;;;;;41.02;16.22;98895.56;4956322;28;20117;-80
2023/10/31 07:03:59;;;;;;;10.65;3.15;;;;;;;41.15;15.87;98900.16;4942587;28;20325;-80
2023/10/31 07:06:25;;;;;;;9.77;2.70;;;;;;;41.35;16.22;98898.78;4959893;28;20395;-81
2023/10/31 07:08:50;;;;;;;11.23;2.67;;;;;;;41.09;15.96;98900.59;4963193;28;20062;-78
2023/10/31 07:11:16;;;;;;;9.13;2.42;;;;;;;40.75;16.62;98894.59;4961538;28;20038;-82
2023/10/31 07:13:41;;;;;;;4.88;2.70;;;;;;;40.27;16.80;98908.91;4962946;28;20038;-81
2023/10/31 07:16:07;;;;;;;13.77;2.72;;;;;;;39.74;17.47;98910.34;4960926;28;20030;-74
2023/10/31 07:18:32;;;;;;;8.65;2.85;;;;;;;39.00;18.09;98908.47;4943771;28;20414;-76
2023/10/31 07:20:58;;;;;;;12.90;3.22;;;;;;;38.34;18.83;98903.06;4943542;28;20081;-77
2023/10/31 07:23:23;;;;;;;16.33;2.80;;;;;;;37.76;19.30;98912.28;4943561;28;20497;-78
2023/10/31 07:25:49;;;;;;;20.38;3.33;;;;;;;37.25;19.80;98906.34;4943293;28;20123;-79
2023/10/31 07:28:14;;;;;;;12.30;3.45;;;;;;;36.84;20.52;98917.59;4961555;28;20042;-87
2023/10/31 07:30:40;;;;;;;24.55;3.72;;;;;;;36.42;20.81;98907.34;4978737;28;20042;-86
2023/10/31 07:33:05;;;;;;;14.50;3.92;;;;;;;36.06;21.32;98911.09;4945672;28;20035;-81
2023/10/31 07:35:32;;;;;;;23.02;4.53;;;;;;;35.61;22.10;98905.56;4959385;28;20507;-77
2023/10/31 07:37:57;;;;;;;18.77;3.70;;;;;;;35.22;22.41;98908.94;4927884;28;20031;-77
2023/10/31 07:40:22;;;;;;;19.55;4.00;;;;;;;34.90;22.50;98907.38;4942741;28;20486;-79
2023/10/31 07:42:48;;;;;;;15.00;4.80;;;;;;;34.70;23.18;98899.22;4976645;28;20109;-75
2023/10/31 07:45:14;;;;;;;16.52;5.30;;;;;;;34.54;23.28;98906.56;4942276;28;20046;-75
2023/10/31 07:47:39;;;;;;;21.13;5.70;;;;;;;34.41;23.47;98916.00;4951673;28;20104;-77
2023/10/31 07:50:05;;;;;;;16.55;5.40;;;;;;;34.31;23.94;98905.19;4967187;28;20049;-76
2023/10/31 07:52:31;;;;;;;17.90;5.43;;;;;;;34.23;24.30;98906.50;4975472;28;20049;-75
2023/10/31 07:54:56;;;;;;;18.88;5.07;;;;;;;34.14;24.10;98911.59;4968330;28;20070;-77
2023/10/31 07:57:22;;;;;;;15.52;5.13;;;;;;;34.11;24.05;98901.34;4995233;28;20030;-75
2023/10/31 07:59:47;;;;;;;16.30;5.03;;;;;;;34.10;23.98;98907.03;4995286;28;20031;-78
2023/10/31 08:02:13;;;;;;;19.70;5.38;;;;;;;33.98;24.57;98897.22;4996000;28;20497;-82
2023/10/31 08:04:38;;;;;;;16.15;5.28;;;;;;;33.94;24.56;98893.44;4961151;28;20050;-80
2023/10/31 08:07:04;;;;;;;17.27;5.50;;;;;;;33.94;24.11;98892.59;4977955;28;20045;-77
2023/10/31 08:09:30;;;;;;;19.17;5.10;;;;;;;33.89;25.38;98888.81;4978093;28;20034;-81
2023/10/31 08:11:55;;;;;;;18.15;5.50;;;;;;;33.84;23.93;98891.53;4961918;28;20037;-78
2023/10/31 08:14:22;;;;;;;14.77;4.60;;;;;;;33.56;25.08;98890.03;4975970;28;20505;-79
2023/10/31 08:16:47;;;;;;;21.20;5.60;;;;;;;33.34;24.70;98882.09;4962332;28;20130;-78
2023/10/31 08:19:14;;;;;;;20.45;4.80;;;;;;;33.17;26.15;98885.78;4962145;28;20405;-80
2023/10/31 08:21:39;;;;;;;9.88;4.47;;;;;;;33.24;24.67;98880.16;4962176;28;20139;-80
2023/10/31 08:24:05;;;;;;;20.20;4.85;;;;;;;33.25;24.30;98880.97;4938577;28;20497;-76
2023/10/31 08:26:32;;;;;;;15.65;4.25;;;;;;;33.26;25.06;98879.88;4983383;28;20045;-86
2023/10/31 08:28:58;;;;;;;13.02;4.05;;;;;;;33.27;25.08;98867.97;4968891;28;20034;-84
2023/10/31 08:31:24;;;;;;;11.35;4.40;;;;;;;33.32;25.30;98868.81;4969171;28;20428;-84
2023/10/31 08:33:49;;;;;;;15.00;4.60;;;;;;;33.44;24.40;98865.09;4966374;28;20046;-81
2023/10/31 08:36:15;;;;;;;17.50;4.90;;;;;;;33.44;24.37;98870.50;4977655;28;20563;-80
2023/10/31 08:38:40;;;;;;;18.25;5.60;;;;;;;33.38;24.28;98861.53;4977788;28;20057;-81
2023/10/31 08:41:06;;;;;;;24.90;6.18;;;;;;;33.31;24.18;98855.56;4977335;28;20061;-79
2023/10/31 08:43:31;;;;;;;20.08;4.53;;;;;;;33.64;24.62;98850.81;4961880;28;20046;-79
2023/10/31 08:45:57;;;;;;;17.38;4.10;;;;;;;34.07;24.23;98860.41;4961630;28;20090;-74
2023/10/31 08:48:22;;;;;;;18.92;4.75;;;;;;;34.51;23.21;98853.69;4994100;28;20022;-73
2023/10/31 08:50:48;;;;;;;21.73;5.05;;;;;;;35.64;22.34;98848.00;4994086;28;20096;-74
2023/10/31 08:53:14;;;;;;;11.68;3.97;;;;;;;37.06;20.80;98846.38;4976743;28;20034;-72
2023/10/31 08:55:40;;;;;;;20.30;4.53;;;;;;;38.46;18.73;98845.31;4942037;28;20062;-73
2023/10/31 08:58:05;;;;;;;12.80;3.85;;;;;;;39.94;17.90;98840.78;4970716;28;20040;-75
2023/10/31 09:00:31;;;;;;;11.75;3.88;;;;;;;40.95;16.65;98835.03;4963700;28;20379;-73
2023/10/31 09:02:56;;;;;;;8.10;3.55;;;;;;;41.82;15.55;98835.22;4996239;28;20061;-73
2023/10/31 09:05:22;;;;;;;12.85;3.53;;;;;;;42.38;15.79;98820.81;4983694;28;20506;-73
2023/10/31 09:07:47;;;;;;;10.90;3.47;;;;;;;42.46;15.70;98831.78;4956211;28;20065;-73
2023/10/31 09:10:13;;;;;;;7.13;3.17;;;;;;;42.08;15.72;98821.50;4967900;28;20047;-74
2023/10/31 09:12:39;;;;;;;10.55;3.38;;;;;;;41.13;17.12;98820.25;4976305;28;20093;-72
2023/10/31 09:15:05;;;;;;;10.40;3.30;;;;;;;39.84;17.71;98809.03;5003419;28;20112;-73
2023/10/31 09:17:31;;;;;;;10.85;3.50;;;;;;;38.52;19.00;98811.41;4951655;28;20074;-72
2023/10/31 09:19:56;;;;;;;13.43;3.22;;;;;;;37.69;19.72;98800.19;4975311;28;20540;-72
2023/10/31 09:22:22;;;;;;;9.30;3.17;;;;;;;37.24;20.64;98795.88;4975668;28;20046;-73
2023/10/31 09:24:47;;;;;;;6.55;3.17;;;;;;;36.87;20.66;98802.78;4973270;28;20061;-72
2023/10/31 09:27:12;;;;;;;11.10;3.08;;;;;;;36.55;21.43;98792.53;4972707;28;20529;-73
2023/10/31 09:29:38;;;;;;;10.88;3.55;;;;;;;35.98;22.03;98786.75;4974927;28;20042;-74
2023/10/31 09:32:06;;;;;;;13.65;3.47;;;;;;;35.81;22.29;98792.56;4992151;28;20085;-73
2023/10/31 09:34:31;;;;;;;10.95;3.20;;;;;;;35.59;22.02;98779.38;4925140;28;20070;-70
2023/10/31 09:36:57;;;;;;;19.63;3.28;;;;;;;35.01;23.03;98782.59;4973925;28;20031;-73
2023/10/31 09:39:23;;;;;;;13.60;3.53;;;;;;;34.69;23.20;98781.03;4950410;28;20046;-73
2023/10/31 09:41:48;;;;;;;16.05;3.38;;;;;;;34.74;23.19;98772.88;4984340;28;20033;-72
2023/10/31 09:44:14;;;;;;;12.60;3.42;;;;;;;34.91;22.82;98769.88;4976031;28;20057;-78
2023/10/31 09:46:40;;;;;;;8.25;2.80;;;;;;;34.74;22.49;98770.16;4976098;28;20034;-80
2023/10/31 09:49:06;;;;;;;6.95;2.83;;;;;;;34.62;22.93;98770.50;4944126;28;20474;-78
2023/10/31 09:51:31;;;;;;;8.43;2.53;;;;;;;34.73;22.52;98755.81;4959889;28;20085;-78
2023/10/31 09:53:57;;;;;;;12.40;2.83;;;;;;;34.70;22.70;98761.78;4944239;28;20038;-80
2023/10/31 09:56:22;;;;;;;8.75;2.72;;;;;;;34.49;22.79;98749.34;4959609;28;20035;-78
2023/10/31 09:58:48;;;;;;;8.23;2.95;;;;;;;34.59;22.86;98743.94;4959852;28;20030;-79
2023/10/31 10:01:14;;;;;;;16.13;3.70;;;;;;;34.50;22.88;98743.66;4959958;28;20022;-82
2023/10/31 10:03:40;;;;;;;8.98;3.22;;;;;;;34.53;22.81;98743.13;4944447;28;20038;-78
2023/10/31 10:06:06;;;;;;;19.70;3.88;;;;;;;34.61;22.68;98733.63;4976355;28;20418;-79
2023/10/31 10:08:31;;;;;;;19.23;3.83;;;;;;;34.67;22.83;98729.81;4960202;28;20088;-79
2023/10/31 10:10:57;;;;;;;13.15;3.58;;;;;;;34.64;23.06;98721.41;4975561;28;20038;-76
2023/10/31 10:13:22;;;;;;;9.25;3.10;;;;;;;34.38;23.39;98727.72;4959865;28;20493;-78
2023/10/31 10:15:49;;;;;;;9.65;3.22;;;;;;;33.82;23.81;98715.00;4992993;28;20037;-79
2023/10/31 10:18:25;;;;;;;10.20;3.15;;;;;;;33.93;23.77;98704.97;4959433;28;20031;-79
2023/10/31 10:20:58;;;;;;;13.27;3.17;;;;;;;33.96;23.55;98696.31;4960315;28;20038;-79
2023/10/31 10:23:25;;;;;;;15.55;3.00;;;;;;;33.96;23.66;98698.22;4959901;28;20061;-78
2023/10/31 10:25:51;;;;;;;7.35;3.05;;;;;;;33.85;23.45;98690.09;4975674;28;20046;-79
2023/10/31 10:28:19;;;;;;;8.57;2.72;;;;;;;33.99;23.36;98676.81;4943705;28;20041;-83
2023/10/31 10:30:48;;;;;;;12.57;2.88;;;;;;;33.95;23.70;98670.31;4944107;28;20037;-78
2023/10/31 10:33:16;;;;;;;10.77;2.65;;;;;;;33.84;23.51;98671.41;4959223;28;20041;-80
2023/10/31 10:35:42;;;;;;;15.45;3.20;;;;;;;33.80;23.83;98673.03;4959375;28;20026;-80
2023/10/31 10:38:12;;;;;;;12.50;3.08;;;;;;;33.74;23.79;98674.94;4961386;28;20030;-79
2023/10/31 10:40:40;;;;;;;11.05;2.90;;;;;;;33.58;24.23;98659.75;4947618;28;20037;-78
2023/10/31 10:43:08;;;;;;;12.52;2.80;;;;;;;33.47;23.82;98653.53;4947148;28;20401;-79
2023/10/31 10:45:35;;;;;;;15.93;2.67;;;;;;;33.03;24.25;98662.06;4962953;28;20054;-80
2023/10/31 10:48:00;;;;;;;9.73;2.83;;;;;;;32.88;24.61;98655.53;4963283;28;20025;-79
2023/10/31 10:50:29;;;;;;;11.60;3.22;;;;;;;32.83;24.59;98650.13;4963341;28;20046;-83
2023/10/31 10:53:01;;;;;;;12.85;2.95;;;;;;;32.86;24.73;98652.25;4964229;28;20088;-78
2023/10/31 10:55:27;;;;;;;8.60;2.67;;;;;;;32.71;24.94;98655.75;4963217;28;20462;-79
2023/10/31 10:58:01;;;;;;;8.82;2.80;;;;;;;32.37;25.13;98652.56;4962880;28;20085;-78
2023/10/31 11:00:26;;;;;;;10.02;2.70;;;;;;;32.30;25.23;98649.31;4946848;28;20133;-79
2023/10/31 11:02:56;;;;;;;9.95;2.90;;;;;;;32.17;25.61;98643.28;4962990;28;20109;-79
2023/10/31 11:05:21;;;;;;;15.93;3.55;;;;;;;32.20;25.09;98637.38;4962765;28;20034;-78
2023/10/31 11:07:47;;;;;;;11.38;2.70;;;;;;;32.07;25.41;98644.00;4996367;28;20053;-79
2023/10/31 11:10:12;;;;;;;12.57;3.17;;;;;;;31.93;25.67;98637.44;4946964;28;20112;-79
2023/10/31 11:12:38;;;;;;;11.25;3.00;;;;;;;31.87;25.75;98625.78;4962833;28;20029;-78
2023/10/31 11:15:05;;;;;;;9.57;3.30;;;;;;;31.83;25.82;98632.75;4946569;28;20049;-78
2023/10/31 11:17:34;;;;;;;7.00;3.25;;;;;;;31.66;25.77;98621.31;4947064;28;20033;-79
2023/10/31 11:19:59;;;;;;;9.00;4.00;;;;;;;31.34;25.58;98622.91;4962912;28;20038;-80
2023/10/31 11:22:25;;;;;;;14.18;3.60;;;;;;;30.72;26.45;98602.56;4962685;28;20389;-79